createdAt,value
2019-03-16T00:01:17.973Z,11.87
2019-03-16T00:03:49.178Z,13.90
2019-03-16T00:06:20.133Z,11.67
2019-03-16T00:08:51.079Z,13.28
2019-03-16T00:11:21.962Z,13.63
2019-03-16T00:13:53.219Z,10.65
2019-03-16T00:16:24.127Z,7.53
2019-03-16T00:18:55.106Z,11.07
2019-03-16T00:21:26.466Z,8.77
2019-03-16T00:23:57.310Z,13.00
2019-03-16T00:26:39.322Z,10.23
2019-03-16T00:29:11.636Z,14.33
2019-03-16T00:31:42.963Z,9.47
2019-03-16T00:34:14.138Z,12.13
2019-03-16T00:36:45.566Z,12.33
2019-03-16T00:39:16.512Z,11.95
2019-03-16T00:41:47.374Z,11.20
2019-03-16T00:44:18.263Z,7.55
2019-03-16T00:46:49.631Z,9.07
2019-03-16T00:49:21.819Z,9.03
2019-03-16T00:51:52.696Z,7.53
2019-03-16T00:54:23.692Z,15.28
2019-03-16T00:56:54.537Z,12.87
2019-03-16T00:59:25.430Z,8.97
2019-03-16T01:01:56.885Z,13.00
2019-03-16T01:04:28.632Z,11.97
2019-03-16T01:06:59.894Z,3.03
2019-03-16T01:09:30.805Z,7.83
2019-03-16T01:12:02.072Z,10.53
2019-03-16T01:14:32.926Z,9.77
2019-03-16T01:17:04.184Z,8.30
2019-03-16T01:19:35.416Z,5.63
2019-03-16T01:22:07.089Z,8.50
2019-03-16T01:24:37.929Z,8.23
2019-03-16T01:27:09.606Z,17.63
2019-03-16T01:29:40.525Z,6.00
2019-03-16T01:32:11.709Z,8.55
2019-03-16T01:34:44.330Z,9.23
2019-03-16T01:37:15.425Z,7.90
2019-03-16T01:39:46.872Z,14.80
2019-03-16T01:42:17.983Z,10.93
2019-03-16T01:44:49.119Z,8.70
2019-03-16T01:47:19.957Z,7.70
2019-03-16T01:49:50.981Z,12.83
2019-03-16T01:52:21.939Z,5.40
2019-03-16T01:54:53.187Z,13.20
2019-03-16T01:57:24.378Z,11.60
2019-03-16T01:59:55.553Z,8.97
2019-03-16T02:02:32.617Z,14.78
2019-03-16T02:05:07.636Z,11.73
2019-03-16T02:07:38.720Z,12.63
2019-03-16T02:10:09.922Z,16.50
2019-03-16T02:12:40.814Z,11.28
2019-03-16T02:15:11.843Z,7.00
2019-03-16T02:17:42.703Z,7.20
2019-03-16T02:20:13.936Z,12.82
2019-03-16T02:22:46.382Z,15.47
2019-03-16T02:25:17.339Z,9.37
2019-03-16T02:27:48.436Z,13.98
2019-03-16T02:30:19.444Z,12.30
2019-03-16T02:32:50.305Z,11.80
2019-03-16T02:35:21.402Z,11.97
2019-03-16T02:37:53.053Z,11.47
2019-03-16T02:40:26.067Z,14.27
2019-03-16T02:42:57.022Z,11.43
2019-03-16T02:45:28.174Z,11.97
2019-03-16T02:47:59.765Z,10.60
2019-03-16T02:50:31.013Z,11.43
2019-03-16T02:53:03.288Z,14.23
2019-03-16T02:55:34.237Z,16.23
2019-03-16T02:58:05.427Z,8.37
2019-03-16T03:00:37.018Z,17.53
2019-03-16T03:03:08.630Z,10.93
2019-03-16T03:05:39.642Z,13.37
2019-03-16T03:08:10.920Z,25.27
2019-03-16T03:10:41.748Z,11.23
2019-03-16T03:13:13.836Z,10.77
2019-03-16T03:15:45.056Z,8.77
2019-03-16T03:18:17.035Z,5.90
2019-03-16T03:20:47.869Z,9.73
2019-03-16T03:23:18.892Z,13.38
2019-03-16T03:25:50.321Z,11.93
2019-03-16T03:28:21.446Z,10.03
2019-03-16T03:30:52.696Z,11.25
2019-03-16T03:33:23.536Z,12.93
2019-03-16T03:35:54.440Z,13.50
2019-03-16T03:38:25.730Z,9.45
2019-03-16T03:41:01.227Z,12.60
2019-03-16T03:43:29.740Z,17.60
2019-03-16T03:46:01.012Z,9.30
2019-03-16T03:48:32.099Z,7.50
2019-03-16T03:51:03.438Z,17.07
2019-03-16T03:53:34.749Z,16.73
2019-03-16T03:56:05.669Z,8.87
2019-03-16T03:58:36.630Z,10.73
2019-03-16T04:01:07.602Z,5.70
2019-03-16T04:03:38.795Z,10.63
2019-03-16T04:06:09.966Z,9.10
2019-03-16T04:08:41.212Z,11.17
2019-03-16T04:11:12.077Z,8.17
2019-03-16T04:13:42.941Z,4.83
2019-03-16T04:16:13.845Z,11.43
2019-03-16T04:18:45.162Z,11.18
2019-03-16T04:21:16.117Z,16.73
2019-03-16T04:23:47.497Z,10.13
2019-03-16T04:26:19.176Z,7.37
2019-03-16T04:28:50.454Z,7.17
2019-03-16T04:31:21.291Z,8.28
2019-03-16T04:33:52.131Z,12.75
2019-03-16T04:36:23.239Z,7.05
2019-03-16T04:38:54.078Z,9.35
2019-03-16T04:41:25.075Z,6.90
2019-03-16T04:43:56.181Z,5.57
2019-03-16T04:46:27.033Z,11.15
2019-03-16T04:48:58.137Z,8.67
2019-03-16T04:51:29.474Z,11.77
2019-03-16T04:54:00.668Z,13.70
2019-03-16T04:56:31.717Z,8.13
2019-03-16T04:59:02.840Z,13.10
2019-03-16T05:01:33.783Z,11.53
2019-03-16T05:04:04.819Z,11.70
2019-03-16T05:06:35.699Z,10.77
2019-03-16T05:09:07.495Z,15.03
2019-03-16T05:11:38.825Z,9.83
2019-03-16T05:14:10.762Z,11.65
2019-03-16T05:16:42.699Z,12.23
2019-03-16T05:19:13.625Z,16.83
2019-03-16T05:21:44.523Z,12.00
2019-03-16T05:24:15.471Z,17.33
2019-03-16T05:26:46.523Z,3.93
2019-03-16T05:29:17.452Z,18.23
2019-03-16T05:31:50.682Z,22.17
2019-03-16T05:34:21.126Z,10.68
2019-03-16T05:36:52.050Z,12.07
2019-03-16T05:39:23.570Z,13.83
2019-03-16T05:41:55.181Z,11.40
2019-03-16T05:44:26.125Z,11.33
2019-03-16T05:46:58.026Z,18.77
2019-03-16T05:49:29.184Z,6.20
2019-03-16T05:52:00.040Z,8.57
2019-03-16T05:54:31.864Z,13.40
2019-03-16T05:57:02.806Z,6.70
2019-03-16T05:59:34.033Z,13.73
2019-03-16T06:02:05.050Z,11.13
2019-03-16T06:04:36.226Z,10.93
2019-03-16T06:07:07.377Z,10.27
2019-03-16T06:09:38.521Z,7.67
2019-03-16T06:12:09.451Z,13.23
2019-03-16T06:14:40.360Z,10.90
2019-03-16T06:17:12.149Z,10.88
2019-03-16T06:19:43.573Z,12.10
2019-03-16T06:22:14.538Z,6.33
2019-03-16T06:24:45.521Z,7.10
2019-03-16T06:27:16.709Z,10.60
2019-03-16T06:29:47.618Z,7.30
2019-03-16T06:32:18.631Z,13.43
2019-03-16T06:34:49.528Z,11.07
2019-03-16T06:37:20.610Z,7.53
2019-03-16T06:39:51.535Z,14.07
2019-03-16T06:42:22.474Z,5.87
2019-03-16T06:44:53.306Z,6.62
2019-03-16T06:47:24.260Z,7.30
2019-03-16T06:49:55.186Z,9.57
2019-03-16T06:52:26.555Z,8.23
2019-03-16T06:54:57.560Z,16.30
2019-03-16T06:57:28.441Z,9.13
2019-03-16T06:59:59.960Z,8.33
2019-03-16T07:02:31.253Z,6.78
2019-03-16T07:05:04.376Z,12.43
2019-03-16T07:07:36.387Z,7.50
2019-03-16T07:10:08.386Z,12.18
2019-03-16T07:12:39.365Z,7.35
2019-03-16T07:15:10.352Z,8.57
2019-03-16T07:17:41.571Z,6.90
2019-03-16T07:20:13.648Z,5.65
2019-03-16T07:22:44.714Z,9.90
2019-03-16T07:25:16.022Z,3.47
2019-03-16T07:27:46.973Z,7.47
2019-03-16T07:30:18.803Z,8.43
2019-03-16T07:32:49.767Z,8.70
2019-03-16T07:35:20.982Z,5.70
2019-03-16T07:37:51.843Z,5.93
2019-03-16T07:40:22.764Z,10.80
2019-03-16T07:42:53.627Z,8.28
2019-03-16T07:45:24.535Z,10.03
2019-03-16T07:47:55.479Z,4.93
2019-03-16T07:53:02.995Z,4.37
2019-03-16T07:55:35.157Z,6.00
2019-03-16T07:58:07.501Z,2.20
2019-03-16T08:00:38.441Z,3.70
2019-03-16T08:03:09.412Z,5.43
2019-03-16T08:05:40.367Z,4.97
2019-03-16T08:08:11.343Z,9.57
2019-03-16T08:10:42.500Z,2.13
2019-03-16T08:13:14.417Z,8.03
2019-03-16T08:15:45.926Z,7.00
2019-03-16T08:18:16.872Z,7.40
2019-03-16T08:20:47.837Z,7.03
2019-03-16T08:23:18.743Z,9.50
2019-03-16T08:25:50.893Z,9.97
2019-03-16T08:28:21.806Z,7.78
2019-03-16T08:30:52.642Z,3.47
2019-03-16T08:33:23.838Z,8.07
2019-03-16T08:35:55.075Z,7.95
2019-03-16T08:38:25.945Z,5.22
2019-03-16T08:40:56.816Z,4.33
2019-03-16T08:43:27.695Z,7.40
2019-03-16T08:45:58.522Z,10.28
2019-03-16T08:48:29.429Z,5.23
2019-03-16T08:51:00.266Z,6.77
2019-03-16T08:53:31.126Z,4.07
2019-03-16T08:56:02.049Z,6.07
2019-03-16T08:58:34.779Z,4.17
2019-03-16T09:01:05.609Z,9.27
2019-03-16T09:03:43.522Z,2.20
2019-03-16T09:06:09.181Z,5.93
2019-03-16T09:08:40.043Z,3.33
2019-03-16T09:11:10.898Z,4.57
2019-03-16T09:13:41.946Z,4.77
2019-03-16T09:16:12.971Z,7.73
2019-03-16T09:18:44.057Z,5.77
2019-03-16T09:21:15.466Z,6.07
2019-03-16T09:23:46.468Z,3.93
2019-03-16T09:26:18.011Z,2.95
2019-03-16T09:28:59.635Z,4.33
2019-03-16T09:31:21.786Z,3.17
2019-03-16T09:33:52.926Z,6.87
2019-03-16T09:36:23.767Z,6.83
2019-03-16T09:38:54.628Z,5.03
2019-03-16T09:41:25.527Z,2.07
2019-03-16T09:43:56.640Z,3.60
2019-03-16T09:46:27.525Z,7.67
2019-03-16T09:48:58.658Z,3.47
2019-03-16T09:51:29.488Z,6.95
2019-03-16T09:54:00.425Z,5.03
2019-03-16T09:56:32.021Z,3.60
2019-03-16T09:59:02.866Z,3.55
2019-03-16T10:01:35.071Z,3.90
2019-03-16T10:04:05.916Z,4.87
2019-03-16T10:06:37.089Z,8.87
2019-03-16T10:09:09.107Z,5.00
2019-03-16T10:11:39.957Z,6.77
2019-03-16T10:14:10.780Z,6.47
2019-03-16T10:16:41.712Z,2.30
2019-03-16T10:19:14.051Z,4.80
2019-03-16T10:21:45.216Z,5.73
2019-03-16T10:24:16.048Z,5.70
2019-03-16T10:26:47.154Z,4.42
2019-03-16T10:29:18.411Z,4.07
2019-03-16T10:31:49.298Z,3.40
2019-03-16T10:34:20.152Z,6.80
2019-03-16T10:36:53.378Z,3.55
2019-03-16T10:39:24.489Z,2.60
2019-03-16T10:41:55.691Z,6.10
2019-03-16T10:44:26.519Z,5.30
2019-03-16T10:46:57.395Z,3.43
2019-03-16T10:49:28.715Z,3.50
2019-03-16T10:52:00.011Z,2.50
2019-03-16T10:54:31.099Z,4.43
2019-03-16T10:57:04.275Z,7.33
2019-03-16T10:59:37.300Z,2.60
2019-03-16T11:02:08.600Z,3.17
2019-03-16T11:04:39.417Z,8.80
2019-03-16T11:07:10.246Z,6.77
2019-03-16T11:09:41.572Z,3.37
2019-03-16T11:12:12.396Z,2.60
2019-03-16T11:14:43.382Z,3.53
2019-03-16T11:17:14.428Z,7.63
2019-03-16T11:19:46.003Z,7.10
2019-03-16T11:22:16.847Z,4.90
2019-03-16T11:24:48.267Z,3.52
2019-03-16T11:27:19.605Z,5.20
2019-03-16T11:29:50.713Z,3.90
2019-03-16T11:32:21.912Z,5.13
2019-03-16T11:34:52.759Z,5.87
2019-03-16T11:37:24.767Z,5.93
2019-03-16T11:39:55.948Z,7.77
2019-03-16T11:42:26.781Z,5.43
2019-03-16T11:44:57.721Z,10.38
2019-03-16T11:47:31.344Z,9.13
2019-03-16T11:50:04.258Z,3.27
2019-03-16T11:52:37.912Z,6.90
2019-03-16T11:55:09.205Z,5.57
2019-03-16T11:57:40.276Z,7.33
2019-03-16T12:00:11.289Z,5.65
2019-03-16T12:02:42.445Z,2.90
2019-03-16T12:05:13.507Z,8.87
2019-03-16T12:07:44.784Z,8.60
2019-03-16T12:10:16.420Z,4.90
2019-03-16T12:12:50.423Z,6.30
2019-03-16T12:15:21.379Z,4.10
2019-03-16T12:17:52.445Z,3.73
2019-03-16T12:20:23.416Z,6.03
2019-03-16T12:22:54.285Z,7.70
2019-03-16T12:25:25.271Z,4.90
2019-03-16T12:27:56.132Z,7.80
2019-03-16T12:30:27.124Z,5.90
2019-03-16T12:32:57.967Z,4.95
2019-03-16T12:35:28.917Z,6.93
2019-03-16T12:38:01.977Z,4.78
2019-03-16T12:40:36.301Z,5.85
2019-03-16T12:43:07.283Z,8.93
2019-03-16T12:45:38.147Z,10.33
2019-03-16T12:48:09.388Z,7.75
2019-03-16T12:50:41.657Z,5.83
2019-03-16T12:53:13.176Z,8.17
2019-03-16T12:55:44.332Z,8.15
2019-03-16T12:58:15.317Z,4.80
2019-03-16T13:00:46.358Z,4.60
2019-03-16T13:03:17.298Z,4.03
2019-03-16T13:05:48.173Z,6.07
2019-03-16T13:08:19.902Z,7.53
2019-03-16T13:10:50.759Z,4.00
2019-03-16T13:13:21.827Z,8.10
2019-03-16T13:15:52.875Z,7.03
2019-03-16T13:18:23.794Z,5.72
2019-03-16T13:21:01.222Z,5.37
2019-03-16T13:23:39.535Z,7.87
2019-03-16T13:26:14.115Z,9.50
2019-03-16T13:28:44.966Z,15.10
2019-03-16T13:31:15.936Z,21.33
2019-03-16T13:33:47.809Z,27.37
2019-03-16T13:36:18.668Z,19.17
2019-03-16T13:38:49.979Z,15.23
2019-03-16T13:41:21.348Z,8.97
2019-03-16T13:43:52.391Z,8.37
2019-03-16T13:46:23.513Z,8.33
2019-03-16T13:48:54.726Z,3.07
2019-03-16T13:51:25.541Z,4.73
2019-03-16T13:53:56.655Z,3.63
2019-03-16T13:56:27.597Z,3.45
2019-03-16T13:58:58.791Z,2.60
2019-03-16T14:01:29.673Z,2.27
2019-03-16T14:04:03.056Z,5.85
2019-03-16T14:06:33.470Z,3.10
2019-03-16T14:09:06.628Z,4.73
2019-03-16T14:11:41.135Z,2.35
2019-03-16T14:14:11.622Z,4.10
2019-03-16T14:16:42.510Z,6.10
2019-03-16T14:19:13.397Z,2.87
2019-03-16T14:21:44.440Z,5.03
2019-03-16T14:24:15.802Z,3.23
2019-03-16T14:26:46.977Z,2.37
2019-03-16T14:29:18.124Z,1.57
2019-03-16T14:31:51.265Z,2.10
2019-03-16T14:34:22.137Z,1.20
2019-03-16T14:36:53.113Z,1.37
2019-03-16T14:39:23.995Z,2.63
2019-03-16T14:41:55.232Z,7.23
2019-03-16T14:44:26.737Z,1.87
2019-03-16T14:46:57.596Z,2.80
2019-03-16T14:49:28.521Z,3.58
2019-03-16T14:51:59.643Z,1.20
2019-03-16T14:54:30.557Z,2.23
2019-03-16T14:57:02.076Z,2.57
2019-03-16T14:59:34.300Z,0.90
2019-03-16T15:02:05.228Z,2.63
2019-03-16T15:04:36.309Z,1.10
2019-03-16T15:07:07.165Z,5.60
2019-03-16T15:09:38.015Z,1.02
2019-03-16T15:12:08.923Z,4.73
2019-03-16T15:14:39.939Z,5.33
2019-03-16T15:17:10.920Z,2.50
2019-03-16T15:19:42.079Z,1.10
2019-03-16T15:22:13.429Z,1.80
2019-03-16T15:24:44.278Z,1.87
2019-03-16T15:27:16.062Z,1.30
2019-03-16T15:29:47.381Z,1.00
2019-03-16T15:32:18.450Z,3.27
2019-03-16T15:34:49.375Z,2.10
2019-03-16T15:37:20.913Z,2.35
2019-03-16T15:39:52.346Z,4.33
2019-03-16T15:42:23.305Z,1.33
2019-03-16T15:44:54.255Z,2.07
2019-03-16T15:47:25.228Z,2.23
2019-03-16T15:49:58.495Z,2.30
2019-03-16T15:52:29.110Z,3.87
2019-03-16T15:55:00.469Z,2.57
2019-03-16T15:57:31.717Z,3.67
2019-03-16T16:00:02.539Z,3.27
2019-03-16T16:02:34.901Z,2.80
2019-03-16T16:05:06.179Z,1.03
2019-03-16T16:07:37.086Z,1.63
2019-03-16T16:10:09.306Z,2.07
2019-03-16T16:12:40.433Z,4.10
2019-03-16T16:15:11.540Z,2.80
2019-03-16T16:17:42.448Z,0.77
2019-03-16T16:20:13.457Z,3.57
2019-03-16T16:22:44.364Z,2.20
2019-03-16T16:25:15.572Z,3.63
2019-03-16T16:27:46.418Z,1.17
2019-03-16T16:30:17.357Z,0.63
2019-03-16T16:32:48.249Z,0.80
2019-03-16T16:35:21.031Z,1.47
2019-03-16T16:37:51.933Z,4.57
2019-03-16T16:40:23.270Z,0.57
2019-03-16T16:42:54.597Z,4.93
2019-03-16T16:45:25.500Z,1.57
2019-03-16T16:47:56.589Z,1.03
2019-03-16T16:50:27.478Z,3.60
2019-03-16T16:52:58.689Z,3.57
2019-03-16T16:55:29.635Z,2.30
2019-03-16T16:58:00.465Z,1.37
2019-03-16T17:00:31.796Z,2.70
2019-03-16T17:03:02.977Z,0.87
2019-03-16T17:05:36.761Z,3.15
2019-03-16T17:08:07.605Z,1.17
2019-03-16T17:10:38.885Z,4.15
2019-03-16T17:13:09.817Z,2.73
2019-03-16T17:15:40.938Z,2.10
2019-03-16T17:18:12.221Z,3.20
2019-03-16T17:20:43.130Z,2.40
2019-03-16T17:23:14.022Z,1.77
2019-03-16T17:25:45.102Z,2.07
2019-03-16T17:28:16.325Z,2.27
2019-03-16T17:30:47.170Z,1.90
2019-03-16T17:33:18.118Z,1.55
2019-03-16T17:35:49.278Z,2.40
2019-03-16T17:38:20.167Z,1.53
2019-03-16T17:40:51.104Z,1.50
2019-03-16T17:43:22.024Z,0.80
2019-03-16T17:45:53.021Z,2.10
2019-03-16T17:48:24.650Z,1.70
2019-03-16T17:50:55.795Z,3.10
2019-03-16T17:53:26.667Z,3.80
2019-03-16T17:55:57.835Z,2.93
2019-03-16T17:58:29.006Z,1.77
2019-03-16T18:00:59.863Z,0.90
2019-03-16T18:03:30.819Z,4.13
2019-03-16T18:06:04.794Z,1.72
2019-03-16T18:08:36.068Z,1.10
2019-03-16T18:11:07.365Z,2.17
2019-03-16T18:13:38.235Z,2.13
2019-03-16T18:16:09.092Z,2.10
2019-03-16T18:18:39.932Z,1.37
2019-03-16T18:21:10.837Z,1.67
2019-03-16T18:23:41.686Z,1.52
2019-03-16T18:26:12.654Z,1.55
2019-03-16T18:28:43.764Z,1.70
2019-03-16T18:31:14.811Z,5.70
2019-03-16T18:33:45.708Z,0.97
2019-03-16T18:36:16.856Z,1.50
2019-03-16T18:38:47.785Z,1.60
2019-03-16T18:41:18.760Z,3.67
2019-03-16T18:43:49.833Z,2.10
2019-03-16T18:46:21.307Z,2.63
2019-03-16T18:48:52.252Z,3.30
2019-03-16T18:51:23.139Z,0.87
2019-03-16T18:53:53.980Z,3.33
2019-03-16T18:56:25.526Z,1.07
2019-03-16T18:58:56.416Z,1.87
2019-03-16T19:01:27.502Z,3.63
2019-03-16T19:03:58.424Z,1.07
2019-03-16T19:06:30.367Z,1.17
2019-03-16T19:09:02.758Z,1.20
2019-03-16T19:11:37.451Z,0.50
2019-03-16T19:14:08.354Z,1.30
2019-03-16T19:16:39.486Z,3.40
2019-03-16T19:19:10.375Z,3.80
2019-03-16T19:21:41.463Z,1.47
2019-03-16T19:24:12.377Z,2.00
2019-03-16T19:26:43.452Z,1.77
2019-03-16T19:29:16.817Z,0.73
2019-03-16T19:31:48.005Z,4.43
2019-03-16T19:34:19.394Z,1.47
2019-03-16T19:36:50.804Z,1.43
2019-03-16T19:39:24.999Z,2.83
2019-03-16T19:41:55.619Z,1.40
2019-03-16T19:44:26.568Z,2.90
2019-03-16T19:46:57.573Z,2.63
2019-03-16T19:49:28.450Z,2.87
2019-03-16T19:51:59.687Z,4.30
2019-03-16T19:54:30.700Z,1.95
2019-03-16T19:57:15.425Z,6.23
2019-03-16T19:59:38.716Z,2.43
2019-03-16T20:02:09.820Z,2.83
2019-03-16T20:04:40.859Z,1.45
2019-03-16T20:07:19.189Z,1.70
2019-03-16T20:09:44.938Z,3.47
2019-03-16T20:12:16.512Z,2.43
2019-03-16T20:14:47.517Z,2.13
2019-03-16T20:17:18.976Z,1.47
2019-03-16T20:19:49.920Z,2.37
2019-03-16T20:22:21.081Z,2.40
2019-03-16T20:24:52.345Z,1.33
2019-03-16T20:27:23.372Z,2.07
2019-03-16T20:29:55.670Z,2.33
2019-03-16T20:32:27.565Z,2.20
2019-03-16T20:34:58.750Z,3.83
2019-03-16T20:37:29.964Z,3.57
2019-03-16T20:40:01.064Z,2.73
2019-03-16T20:42:31.967Z,5.35
2019-03-16T20:45:05.696Z,6.65
2019-03-16T20:47:36.617Z,6.53
2019-03-16T20:50:09.495Z,2.70
2019-03-16T20:52:40.592Z,3.73
2019-03-16T20:55:11.514Z,4.10
2019-03-16T20:57:42.387Z,5.33
2019-03-16T21:00:13.341Z,2.53
2019-03-16T21:02:44.399Z,0.57
2019-03-16T21:05:15.352Z,3.70
2019-03-16T21:07:46.374Z,5.70
2019-03-16T21:10:17.478Z,6.47
2019-03-16T21:12:48.565Z,2.93
2019-03-16T21:15:22.557Z,1.33
2019-03-16T21:17:55.793Z,4.83
2019-03-16T21:20:26.537Z,3.90
2019-03-16T21:22:57.516Z,4.00
2019-03-16T21:25:28.435Z,2.83
2019-03-16T21:28:00.991Z,2.50
2019-03-16T21:30:33.843Z,2.83
2019-03-16T21:33:04.681Z,4.23
2019-03-16T21:35:35.611Z,3.83
2019-03-16T21:38:06.591Z,2.03
2019-03-16T21:40:38.704Z,5.47
2019-03-16T21:43:09.689Z,6.85
2019-03-16T21:45:40.575Z,4.22
2019-03-16T21:48:11.647Z,6.73
2019-03-16T21:50:42.583Z,1.73
2019-03-16T21:53:13.495Z,4.63
2019-03-16T21:55:44.560Z,4.47
2019-03-16T21:58:15.577Z,3.80
2019-03-16T22:00:46.563Z,1.73
2019-03-16T22:03:17.449Z,0.88
2019-03-16T22:05:48.343Z,5.08
2019-03-16T22:08:20.147Z,2.90
2019-03-16T22:10:51.320Z,3.47
2019-03-16T22:13:22.444Z,2.80
2019-03-16T22:15:53.414Z,10.75
2019-03-16T22:18:24.767Z,2.73
2019-03-16T22:20:55.601Z,7.03
2019-03-16T22:23:26.454Z,4.93
2019-03-16T22:25:59.736Z,5.20
2019-03-16T22:28:30.585Z,4.43
2019-03-16T22:31:03.824Z,3.47
2019-03-16T22:33:35.030Z,4.90
2019-03-16T22:36:05.884Z,3.40
2019-03-16T22:38:36.784Z,2.07
2019-03-16T22:41:07.936Z,1.15
2019-03-16T22:43:38.735Z,1.75
2019-03-16T22:46:10.239Z,6.30
2019-03-16T22:48:41.394Z,3.53
2019-03-16T22:51:12.800Z,3.43
2019-03-16T22:53:43.640Z,4.07
2019-03-16T22:56:14.553Z,3.50
2019-03-16T22:58:45.491Z,5.25
2019-03-16T23:01:16.660Z,4.73
2019-03-16T23:03:47.910Z,7.20
2019-03-16T23:06:18.805Z,6.27
2019-03-16T23:08:51.176Z,8.50
2019-03-16T23:11:22.005Z,6.20
2019-03-16T23:13:52.931Z,5.55
2019-03-16T23:16:24.062Z,8.97
2019-03-16T23:18:54.956Z,5.83
2019-03-16T23:21:26.382Z,6.83
2019-03-16T23:23:57.501Z,5.60
2019-03-16T23:26:38.031Z,6.80
2019-03-16T23:29:01.556Z,6.27
2019-03-16T23:31:32.425Z,5.57
2019-03-16T23:34:18.336Z,9.40
2019-03-16T23:36:38.557Z,6.53
2019-03-16T23:39:09.510Z,7.37
2019-03-16T23:41:40.339Z,4.80
2019-03-16T23:44:11.654Z,10.57
2019-03-16T23:46:42.578Z,6.23
2019-03-16T23:49:14.852Z,4.23
2019-03-16T23:51:45.998Z,6.67
2019-03-16T23:54:16.876Z,3.60
2019-03-16T23:56:47.835Z,6.42
2019-03-16T23:59:18.740Z,10.00
